Time;durP1;ratioP1;P1;durP2;ratioP2;P2;SDS_P1;SDS_P2;PMS_P1;PMS_P2;Temp;Humidity;BMP_temperature;BMP_pressure;BME280_temperature;BME280_humidity;BME280_pressure;Samples;Min_cycle;Max_cycle;Signal;HPM_P1;HPM_P2
2022/09/26 00:01:50;;;;;;;20.67;13.23;;;;;;;12.10;72.95;100002.50;5066685;28;20048;-27
2022/09/26 00:04:21;;;;;;;19.10;12.20;;;;;;;11.99;73.18;100013.97;5067542;28;20123;-28
2022/09/26 00:06:47;;;;;;;18.00;11.75;;;;;;;12.02;73.45;100014.31;5066835;28;20044;-28
2022/09/26 00:09:14;;;;;;;18.75;11.50;;;;;;;12.15;73.26;100028.53;5067133;28;20036;-28
2022/09/26 00:11:40;;;;;;;19.27;12.40;;;;;;;12.14;72.79;100021.56;5066937;28;20128;-30
2022/09/26 00:14:10;;;;;;;18.33;12.13;;;;;;;12.36;72.22;100011.94;5066828;28;20039;-27
2022/09/26 00:16:37;;;;;;;17.88;11.52;;;;;;;11.98;72.52;100002.47;5066862;28;20020;-30
2022/09/26 00:19:03;;;;;;;16.02;11.30;;;;;;;11.95;73.99;100007.44;5066339;28;20557;-26
2022/09/26 00:21:30;;;;;;;18.77;12.65;;;;;;;12.01;73.94;100027.91;5066922;28;20093;-26
2022/09/26 00:23:56;;;;;;;17.60;12.48;;;;;;;12.17;72.60;100021.09;5066609;28;20042;-27
2022/09/26 00:26:23;;;;;;;15.80;11.20;;;;;;;12.02;73.36;100000.16;5066927;28;20051;-29
2022/09/26 00:28:49;;;;;;;17.00;11.48;;;;;;;11.69;74.30;100013.94;5066801;28;20036;-28
2022/09/26 00:31:18;;;;;;;16.60;11.32;;;;;;;11.63;75.27;100024.53;5066524;28;20142;-26
2022/09/26 00:33:44;;;;;;;16.63;10.95;;;;;;;11.50;75.98;100027.34;5066679;28;20039;-28
2022/09/26 00:36:09;;;;;;;16.95;12.02;;;;;;;11.74;75.14;100022.13;5031906;28;20029;-28
2022/09/26 00:38:35;;;;;;;14.65;11.38;;;;;;;11.16;76.83;100007.47;5066633;28;20040;-27
2022/09/26 00:41:02;;;;;;;16.23;11.07;;;;;;;11.43;76.08;100018.63;5066703;28;20455;-30
2022/09/26 00:43:31;;;;;;;20.30;10.95;;;;;;;11.22;76.51;100026.06;5066756;28;20031;-27
2022/09/26 00:46:23;;;;;;;17.42;10.25;;;;;;;11.31;76.04;100017.75;5066283;28;20039;-27
2022/09/26 00:48:54;;;;;;;15.40;10.63;;;;;;;11.51;74.94;100002.28;5066612;28;20551;-26
2022/09/26 00:51:20;;;;;;;14.90;10.68;;;;;;;11.19;76.47;100013.16;5048749;28;20035;-26
2022/09/26 00:53:49;;;;;;;15.75;10.93;;;;;;;11.22;76.21;100003.91;5066315;28;20032;-34
2022/09/26 00:56:25;;;;;;;14.27;10.43;;;;;;;11.73;74.14;99999.09;5048966;28;20387;-27
2022/09/26 00:58:59;;;;;;;13.75;10.55;;;;;;;11.68;74.30;99996.31;5067162;28;20075;-27
2022/09/26 01:01:25;;;;;;;15.85;10.75;;;;;;;11.74;73.63;99998.88;5066779;28;20567;-27
2022/09/26 01:03:51;;;;;;;15.15;11.00;;;;;;;11.84;72.99;100006.34;5066189;28;20058;-26
2022/09/26 01:06:17;;;;;;;15.70;10.98;;;;;;;11.66;74.45;100008.03;5066315;28;20123;-27
2022/09/26 01:08:50;;;;;;;16.27;10.80;;;;;;;11.20;76.34;99996.13;5066392;28;20028;-27
2022/09/26 01:11:15;;;;;;;13.60;10.82;;;;;;;11.09;77.64;100002.19;5066694;28;20107;-28
2022/09/26 01:13:42;;;;;;;16.58;12.15;;;;;;;11.11;76.04;99981.44;5066766;28;20040;-27
2022/09/26 01:16:08;;;;;;;17.08;12.43;;;;;;;11.55;74.77;99997.31;5066216;28;20036;-27
2022/09/26 01:18:34;;;;;;;19.35;13.02;;;;;;;11.54;74.46;99996.47;5048370;28;20025;-27
2022/09/26 01:21:35;;;;;;;19.77;12.63;;;;;;;11.49;73.78;100004.38;5066301;28;20035;-26
2022/09/26 01:24:13;;;;;;;23.40;11.95;;;;;;;11.52;73.19;100009.25;5048066;28;20049;-29
2022/09/26 01:26:51;;;;;;;23.05;13.10;;;;;;;11.17;75.16;99995.75;5066511;28;20093;-25
2022/09/26 01:29:25;;;;;;;18.57;12.50;;;;;;;11.10;75.15;99993.16;5066266;28;20021;-26
2022/09/26 01:32:47;;;;;;;17.92;13.25;;;;;;;10.75;76.94;99990.31;5069093;28;20292;-26
2022/09/26 01:35:01;;;;;;;20.90;13.02;;;;;;;11.08;75.05;99981.09;5069492;28;20037;-27
2022/09/26 01:37:26;;;;;;;23.60;13.13;;;;;;;10.89;75.10;99981.13;5069946;28;20522;-26
2022/09/26 01:40:05;;;;;;;21.88;13.55;;;;;;;11.24;73.81;99975.94;5069615;28;20032;-27
2022/09/26 01:42:33;;;;;;;19.80;13.57;;;;;;;11.24;73.93;100013.31;5069978;28;20029;-26
2022/09/26 01:45:17;;;;;;;;;;;;;;;10.83;75.31;100011.34;5070309;28;20043;-29
2022/09/26 01:48:09;;;;;;;24.17;13.65;;;;;;;10.98;75.08;100005.63;5069911;28;20403;-27
2022/09/26 01:50:52;;;;;;;21.00;13.05;;;;;;;10.62;76.09;100007.22;5062988;28;20044;-29
2022/09/26 01:53:34;;;;;;;21.85;14.05;;;;;;;10.42;76.36;99989.59;5069496;28;20075;-27
2022/09/26 01:56:11;;;;;;;21.88;13.35;;;;;;;10.84;75.34;100007.63;5069524;28;20028;-27
2022/09/26 01:59:01;;;;;;;21.03;13.73;;;;;;;10.95;74.01;100014.06;5069568;28;20034;-27
2022/09/26 02:01:30;;;;;;;21.92;14.10;;;;;;;10.91;73.67;100013.72;5051592;28;20286;-27
2022/09/26 02:04:01;;;;;;;20.77;13.30;;;;;;;11.12;72.77;99996.44;5068943;28;20515;-27
2022/09/26 02:06:42;;;;;;;21.90;13.48;;;;;;;10.75;73.80;100001.78;5069209;28;20071;-30
2022/09/26 02:09:13;;;;;;;19.35;13.23;;;;;;;11.12;73.00;100012.44;5069409;28;20178;-25
2022/09/26 02:11:43;;;;;;;20.25;13.77;;;;;;;10.73;73.87;99990.50;5051175;28;20115;-27
2022/09/26 02:14:20;;;;;;;22.27;13.60;;;;;;;10.34;75.42;99987.22;5069216;28;20024;-27
2022/09/26 02:16:52;;;;;;;19.30;12.98;;;;;;;10.00;77.94;99996.47;5051215;28;20136;-28
2022/09/26 02:19:24;;;;;;;18.02;12.23;;;;;;;9.82;78.25;99999.88;5069374;28;20029;-33
2022/09/26 02:21:50;;;;;;;18.65;12.35;;;;;;;9.95;77.23;100007.78;5069128;28;20059;-28
2022/09/26 02:24:15;;;;;;;21.40;12.23;;;;;;;9.87;76.87;99984.06;5069395;28;20031;-26
2022/09/26 02:26:44;;;;;;;22.92;12.63;;;;;;;10.01;77.00;99988.28;5068995;28;20115;-29
2022/09/26 02:29:12;;;;;;;19.50;12.20;;;;;;;10.21;76.32;100003.28;5069240;28;20042;-26
2022/09/26 02:31:40;;;;;;;;;;;;;;;10.11;76.50;100008.28;5069318;28;20039;-26
2022/09/26 02:34:06;;;;;;;;;;;;;;;10.03;76.46;99996.88;5068859;28;19965;-28
2022/09/26 02:36:33;;;;;;;23.15;14.00;;;;;;;9.93;75.65;99974.38;5069075;28;19936;-27
2022/09/26 02:39:00;;;;;;;24.05;14.13;;;;;;;10.17;75.52;99975.41;5069059;28;20024;-26
2022/09/26 02:41:50;;;;;;;30.75;16.88;;;;;;;9.85;76.19;99986.13;5068629;28;20032;-27
2022/09/26 02:44:37;;;;;;;36.83;19.08;;;;;;;9.85;76.57;99988.81;5068636;28;20024;-25
2022/09/26 02:47:34;;;;;;;39.40;20.10;;;;;;;9.96;77.13;99993.41;5050767;28;20036;-29
2022/09/26 02:50:32;;;;;;;37.63;21.65;;;;;;;9.91;77.57;99984.44;5068314;28;20028;-26
2022/09/26 02:53:06;;;;;;;34.67;18.45;;;;;;;9.78;78.29;99988.81;5050560;28;20047;-30
2022/09/26 02:55:38;;;;;;;24.98;16.60;;;;;;;9.66;78.57;99995.88;5068475;28;20025;-28
2022/09/26 02:58:22;;;;;;;21.52;13.75;;;;;;;9.49;78.09;99984.91;5068331;28;20119;-25
2022/09/26 03:00:59;;;;;;;25.63;14.50;;;;;;;9.44;79.17;99992.75;5050314;28;20032;-27
2022/09/26 03:03:51;;;;;;;49.47;25.20;;;;;;;9.38;80.18;100004.25;5068588;28;20628;-27
2022/09/26 03:06:21;;;;;;;72.93;36.20;;;;;;;9.51;79.27;99996.16;5064947;28;20049;-26
2022/09/26 03:08:50;;;;;;;94.07;41.08;;;;;;;9.56;78.68;99980.38;5068317;28;20055;-28
2022/09/26 03:11:20;;;;;;;204.80;80.07;;;;;;;9.48;79.18;99962.00;5068173;28;20086;-27
2022/09/26 03:13:48;;;;;;;161.57;65.05;;;;;;;9.52;79.51;99967.69;5049623;28;20097;-31
2022/09/26 03:16:14;;;;;;;101.97;48.05;;;;;;;9.67;79.47;99997.53;5068166;28;20033;-25
2022/09/26 03:18:54;;;;;;;85.32;40.85;;;;;;;9.64;79.85;99998.78;5068249;28;20032;-26
2022/09/26 03:21:21;;;;;;;75.60;36.22;;;;;;;9.57;80.23;100003.31;5068035;28;20116;-26
2022/09/26 03:23:47;;;;;;;69.68;34.42;;;;;;;9.59;79.79;99998.59;5067824;28;20020;-30
2022/09/26 03:26:17;;;;;;;64.30;31.20;;;;;;;9.70;80.24;99993.59;5068018;28;20032;-26
2022/09/26 03:28:43;;;;;;;92.68;43.72;;;;;;;9.61;80.20;99940.59;5068126;28;20733;-26
2022/09/26 03:31:09;;;;;;;102.72;45.38;;;;;;;9.59;80.21;99974.63;5067547;28;20038;-28
2022/09/26 03:33:34;;;;;;;98.47;44.20;;;;;;;9.62;79.82;99984.03;5067608;28;20032;-28
2022/09/26 03:36:03;;;;;;;68.43;35.60;;;;;;;9.55;79.75;99989.38;5067363;28;20111;-26
2022/09/26 03:38:29;;;;;;;62.28;30.58;;;;;;;9.38;79.80;99994.41;5067520;28;20025;-26
2022/09/26 03:40:57;;;;;;;80.35;33.45;;;;;;;9.53;79.28;99991.44;5067205;28;20039;-27
2022/09/26 03:43:23;;;;;;;245.00;100.55;;;;;;;9.73;78.34;99995.84;5067377;28;20029;-26
2022/09/26 03:45:49;;;;;;;226.95;90.07;;;;;;;9.44;79.46;99984.75;5049509;28;20036;-30
2022/09/26 03:48:15;;;;;;;193.35;74.00;;;;;;;8.95;81.63;99963.09;5067581;28;20389;-27
2022/09/26 03:50:41;;;;;;;85.72;37.58;;;;;;;9.50;80.29;99991.06;5049567;28;20086;-26
2022/09/26 03:53:06;;;;;;;80.30;37.00;;;;;;;9.58;79.90;99982.81;5067529;28;20028;-25
2022/09/26 03:55:32;;;;;;;85.22;38.28;;;;;;;9.27;80.70;99959.66;5066626;28;20028;-27
2022/09/26 03:57:59;;;;;;;67.90;30.98;;;;;;;9.57;79.53;99949.25;5067373;28;20074;-25
2022/09/26 04:00:24;;;;;;;40.75;20.55;;;;;;;9.74;79.52;99970.84;5067266;28;20047;-26
2022/09/26 04:02:50;;;;;;;34.45;17.98;;;;;;;9.74;79.20;99970.84;5067551;28;20032;-28
2022/09/26 04:05:15;;;;;;;30.13;19.42;;;;;;;9.83;79.39;99969.56;5048944;28;20036;-26
2022/09/26 04:07:43;;;;;;;29.27;16.55;;;;;;;9.87;79.06;99978.75;5067379;28;20488;-28
2022/09/26 04:10:09;;;;;;;34.17;21.13;;;;;;;9.90;78.38;99964.19;5049068;28;20070;-26
2022/09/26 04:12:35;;;;;;;62.25;28.75;;;;;;;9.63;79.66;99959.03;5067021;28;20037;-26
2022/09/26 04:15:01;;;;;;;84.35;35.97;;;;;;;9.91;78.77;99960.47;5067218;28;20032;-28
2022/09/26 04:17:28;;;;;;;82.97;36.80;;;;;;;9.98;78.17;99962.06;5067182;28;20024;-27
2022/09/26 04:19:53;;;;;;;72.18;32.88;;;;;;;10.08;77.11;99960.75;5066917;28;20078;-26
2022/09/26 04:22:19;;;;;;;72.05;33.60;;;;;;;9.72;78.59;99940.94;5067116;28;20036;-28
2022/09/26 04:24:44;;;;;;;68.05;31.80;;;;;;;9.88;77.86;99958.25;5048875;28;20036;-25
2022/09/26 04:27:09;;;;;;;54.10;26.63;;;;;;;9.81;77.94;99960.97;5067457;28;20086;-31
2022/09/26 04:29:35;;;;;;;42.30;23.23;;;;;;;9.72;78.11;99940.94;5049147;28;20798;-28
2022/09/26 04:32:01;;;;;;;40.72;21.83;;;;;;;9.80;79.35;99956.66;5066905;28;20032;-27
2022/09/26 04:34:26;;;;;;;35.65;19.33;;;;;;;9.59;80.50;99961.31;5049156;28;20489;-26
2022/09/26 04:36:51;;;;;;;47.60;21.35;;;;;;;9.34;81.98;99944.47;5066985;28;20021;-25
2022/09/26 04:39:17;;;;;;;50.70;23.90;;;;;;;9.34;81.87;99957.78;5067241;28;20032;-27
2022/09/26 04:41:43;;;;;;;43.90;21.50;;;;;;;9.29;81.31;99958.41;5067000;28;20040;-26
2022/09/26 04:44:09;;;;;;;47.22;23.23;;;;;;;9.24;81.48;99961.72;5066788;28;20032;-25
2022/09/26 04:46:35;;;;;;;53.05;22.88;;;;;;;9.15;80.91;99939.03;5067322;28;20097;-33
2022/09/26 04:49:01;;;;;;;57.42;22.73;;;;;;;9.33;80.64;99964.13;5067050;28;20028;-29
2022/09/26 04:51:30;;;;;;;49.90;22.48;;;;;;;9.36;81.13;99947.75;5066784;28;20060;-27
2022/09/26 04:53:56;;;;;;;50.28;26.20;;;;;;;9.77;80.11;99959.78;5066853;28;20025;-26
2022/09/26 04:56:24;;;;;;;61.38;24.50;;;;;;;10.14;79.32;99965.22;5066979;28;20047;-29
2022/09/26 04:58:50;;;;;;;40.25;20.05;;;;;;;10.10;79.74;99953.38;5066960;28;20028;-27
2022/09/26 05:01:18;;;;;;;44.33;19.35;;;;;;;10.00;80.22;99957.31;5066735;28;20032;-29
2022/09/26 05:03:44;;;;;;;36.15;20.55;;;;;;;9.97;79.76;99949.78;5066360;28;20032;-28
2022/09/26 05:06:10;;;;;;;34.80;18.42;;;;;;;9.80;80.86;99948.66;5068090;28;20158;-26
2022/09/26 05:08:37;;;;;;;34.00;18.85;;;;;;;9.54;81.70;99931.03;5070775;28;20500;-28
2022/09/26 05:11:03;;;;;;;40.42;20.13;;;;;;;9.75;80.56;99935.19;5070645;28;20040;-27
2022/09/26 05:13:29;;;;;;;38.05;20.63;;;;;;;10.12;80.09;99962.75;5070545;28;20021;-27
2022/09/26 05:15:58;;;;;;;38.58;19.25;;;;;;;10.39;79.29;99958.03;5070420;28;20044;-27
2022/09/26 05:18:25;;;;;;;36.60;17.60;;;;;;;10.38;79.21;99945.75;5070419;28;20129;-27
2022/09/26 05:20:51;;;;;;;36.10;18.38;;;;;;;10.53;79.33;99953.38;5070204;28;20028;-30
2022/09/26 05:26:24;;;;;;;39.58;18.85;;;;;;;11.05;77.94;99987.69;5070260;28;20098;-26
2022/09/26 05:29:00;;;;;;;44.20;21.77;;;;;;;11.30;76.98;99984.09;5069432;28;20064;-27
2022/09/26 05:31:27;;;;;;;38.95;21.77;;;;;;;11.45;77.01;99963.16;5052064;28;20107;-28
2022/09/26 05:33:56;;;;;;;20.23;13.10;;;;;;;11.38;76.89;99970.41;5069802;28;20460;-27
2022/09/26 05:36:22;;;;;;;16.98;11.73;;;;;;;11.37;77.63;99974.94;5070179;28;20041;-27
2022/09/26 05:38:48;;;;;;;18.27;12.57;;;;;;;11.30;78.08;99965.41;5070128;28;20032;-27
2022/09/26 05:41:13;;;;;;;16.60;11.35;;;;;;;11.46;76.95;99962.94;5052067;28;20028;-28
2022/09/26 05:43:39;;;;;;;26.13;12.15;;;;;;;11.69;75.90;99968.53;5069740;28;20020;-29
2022/09/26 05:46:07;;;;;;;22.88;14.40;;;;;;;11.90;75.88;99968.06;5051961;28;20039;-27
2022/09/26 05:48:34;;;;;;;35.67;17.77;;;;;;;12.08;75.02;99969.03;5070019;28;20028;-27
2022/09/26 05:51:04;;;;;;;33.88;18.25;;;;;;;12.30;74.23;99966.56;5070120;28;20075;-26
2022/09/26 05:53:31;;;;;;;39.03;19.90;;;;;;;12.54;74.47;99970.06;5069868;28;20032;-26
2022/09/26 05:55:56;;;;;;;30.73;18.58;;;;;;;12.56;76.74;99975.97;5051636;28;20518;-28
2022/09/26 05:58:22;;;;;;;32.30;18.77;;;;;;;12.70;76.11;99977.38;5069869;28;20028;-30
2022/09/26 06:00:48;;;;;;;30.27;18.27;;;;;;;12.83;75.28;99971.78;5051873;28;20043;-28
2022/09/26 06:03:14;;;;;;;21.10;13.70;;;;;;;13.07;74.10;99988.56;5069646;28;20102;-27
2022/09/26 06:05:41;;;;;;;30.23;17.95;;;;;;;13.19;74.68;99975.16;5047819;28;20063;-27
2022/09/26 06:08:08;;;;;;;34.03;18.48;;;;;;;13.42;72.35;99978.81;5049556;28;20512;-28
2022/09/26 06:10:35;;;;;;;34.08;17.92;;;;;;;13.61;71.55;99961.50;5049430;28;20068;-30
2022/09/26 06:13:01;;;;;;;31.73;19.15;;;;;;;13.76;72.70;99960.13;5049414;28;20036;-29
2022/09/26 06:15:28;;;;;;;34.55;18.80;;;;;;;13.99;71.02;99962.66;5049368;28;20087;-31
2022/09/26 06:18:03;;;;;;;20.70;13.73;;;;;;;14.08;68.93;99965.75;5048336;28;20039;-28
2022/09/26 06:20:31;;;;;;;21.95;12.98;;;;;;;13.95;68.82;99953.47;5047599;28;20036;-26
2022/09/26 06:22:57;;;;;;;17.67;12.95;;;;;;;14.21;68.59;99967.28;5049214;28;20021;-27
2022/09/26 06:25:22;;;;;;;14.98;11.38;;;;;;;14.39;67.71;99967.03;5048922;28;20075;-29
2022/09/26 06:27:48;;;;;;;14.88;10.48;;;;;;;14.57;66.35;99955.22;5048758;28;20711;-26
2022/09/26 06:30:15;;;;;;;14.00;9.25;;;;;;;14.61;65.67;99944.81;5049426;28;20488;-30
2022/09/26 06:32:40;;;;;;;14.52;9.75;;;;;;;14.73;66.13;99945.50;5049137;28;20021;-27
2022/09/26 06:35:06;;;;;;;14.38;11.07;;;;;;;14.89;66.07;99964.47;5049246;28;20385;-31
2022/09/26 06:37:32;;;;;;;18.00;10.57;;;;;;;14.65;67.02;99948.63;5049019;28;20059;-28
2022/09/26 06:39:57;;;;;;;17.17;11.13;;;;;;;14.81;65.46;99960.34;5048716;28;20068;-27
2022/09/26 06:42:24;;;;;;;18.60;10.95;;;;;;;14.65;66.14;99946.75;5048949;28;20029;-32
2022/09/26 06:44:49;;;;;;;15.98;11.13;;;;;;;15.09;64.54;99953.19;5049065;28;20036;-28
2022/09/26 06:47:15;;;;;;;15.77;10.93;;;;;;;15.18;63.56;99944.44;5049083;28;20029;-27
2022/09/26 06:49:40;;;;;;;21.20;11.90;;;;;;;15.20;64.36;99950.38;5048967;28;20112;-29
2022/09/26 06:52:06;;;;;;;18.20;12.55;;;;;;;15.37;63.84;99939.50;5048604;28;20033;-26
2022/09/26 06:54:31;;;;;;;16.95;11.43;;;;;;;15.72;62.76;99953.53;5048430;28;20032;-28
2022/09/26 06:56:56;;;;;;;18.17;11.80;;;;;;;15.83;62.91;99939.13;5048668;28;20068;-27
2022/09/26 06:59:22;;;;;;;20.70;12.65;;;;;;;15.98;62.49;99960.78;5048570;28;20021;-27
2022/09/26 07:01:48;;;;;;;20.08;10.98;;;;;;;16.07;59.57;99969.19;5046851;28;20041;-28
2022/09/26 07:04:14;;;;;;;14.20;9.20;;;;;;;16.16;59.05;99956.06;5048579;28;20036;-29
2022/09/26 07:06:41;;;;;;;17.63;11.13;;;;;;;16.15;59.03;99957.16;5061503;28;20093;-28
2022/09/26 07:09:06;;;;;;;13.30;9.85;;;;;;;16.55;58.34;99969.22;5067402;28;20028;-27
2022/09/26 07:11:32;;;;;;;12.23;8.52;;;;;;;16.41;58.12;99960.81;5068116;28;20478;-28
2022/09/26 07:14:00;;;;;;;11.55;8.65;;;;;;;16.77;58.25;99980.66;5068245;28;20100;-28
2022/09/26 07:16:27;;;;;;;9.90;7.18;;;;;;;16.75;56.52;99987.38;5068304;28;20099;-26
2022/09/26 07:18:53;;;;;;;10.63;6.90;;;;;;;16.68;56.93;99980.34;5050241;28;20056;-26
2022/09/26 07:21:19;;;;;;;12.68;8.30;;;;;;;16.62;57.94;99961.72;5068578;28;20036;-31
2022/09/26 07:23:44;;;;;;;11.13;8.43;;;;;;;16.83;56.66;99971.56;5068000;28;20059;-28
2022/09/26 07:26:09;;;;;;;12.10;7.18;;;;;;;17.01;57.56;99972.16;5067960;28;20487;-26
2022/09/26 07:28:37;;;;;;;11.65;7.32;;;;;;;17.24;57.47;99965.50;5067606;28;20089;-30
2022/09/26 07:31:03;;;;;;;10.30;6.15;;;;;;;17.41;56.47;99949.94;5067854;28;20086;-30
2022/09/26 07:33:28;;;;;;;9.88;7.00;;;;;;;17.52;56.50;99950.75;5067754;28;20024;-28
2022/09/26 07:35:56;;;;;;;8.52;6.00;;;;;;;17.52;54.65;99964.22;5067659;28;20036;-29
2022/09/26 07:38:22;;;;;;;7.88;5.93;;;;;;;17.66;55.72;99946.44;5067488;28;20029;-29
2022/09/26 07:40:52;;;;;;;9.95;6.00;;;;;;;17.73;54.21;99956.97;5067707;28;20118;-27
2022/09/26 07:43:18;;;;;;;9.77;5.90;;;;;;;17.61;54.55;99924.88;5067712;28;20115;-28
2022/09/26 07:51:11;;;;;;;9.40;6.20;;;;;;;18.17;52.43;99947.56;5067446;28;20044;-30
2022/09/26 07:53:40;;;;;;;8.20;5.75;;;;;;;17.95;53.68;99943.25;5049601;28;20029;-28
2022/09/26 07:56:06;;;;;;;8.45;5.55;;;;;;;17.90;54.00;99932.47;5049249;28;20162;-28
2022/09/26 07:58:40;;;;;;;7.57;5.90;;;;;;;18.27;52.22;99944.84;5067472;28;20028;-27
2022/09/26 08:01:13;;;;;;;9.10;5.70;;;;;;;18.46;52.83;99947.75;5067420;28;20111;-27
2022/09/26 08:03:49;;;;;;;9.93;6.03;;;;;;;18.78;52.58;99944.69;5067669;28;20016;-27
2022/09/26 08:06:19;;;;;;;7.90;5.50;;;;;;;19.00;52.16;99947.06;5067214;28;20863;-31
2022/09/26 08:08:46;;;;;;;10.20;5.85;;;;;;;18.92;51.20;99942.22;5067369;28;20484;-28
2022/09/26 08:11:17;;;;;;;8.53;5.90;;;;;;;19.23;51.21;99942.06;5067144;28;20567;-28
2022/09/26 08:13:44;;;;;;;7.93;5.13;;;;;;;19.83;48.45;99945.44;5066751;28;20029;-29
2022/09/26 08:16:10;;;;;;;8.77;5.20;;;;;;;19.94;47.18;99948.91;5049184;28;20063;-26
2022/09/26 08:18:36;;;;;;;9.25;5.70;;;;;;;19.87;48.02;99932.16;5066848;28;20047;-27
2022/09/26 08:21:04;;;;;;;8.77;5.38;;;;;;;19.73;48.63;99939.31;5066786;28;20028;-28
2022/09/26 08:23:30;;;;;;;9.00;5.15;;;;;;;19.47;48.21;99925.94;5066634;28;20063;-27
2022/09/26 08:25:57;;;;;;;7.03;5.70;;;;;;;19.77;47.19;99905.19;5066951;28;20495;-27
2022/09/26 08:28:22;;;;;;;8.95;5.82;;;;;;;20.21;46.28;99917.78;5066259;28;20044;-28
2022/09/26 08:30:48;;;;;;;8.85;5.70;;;;;;;20.72;45.66;99914.53;5066899;28;20028;-27
2022/09/26 08:33:13;;;;;;;8.88;5.57;;;;;;;21.03;44.69;99914.94;5067190;28;20534;-27
2022/09/26 08:35:39;;;;;;;9.65;5.10;;;;;;;21.32;44.67;99905.03;5066356;28;20021;-28
2022/09/26 08:38:07;;;;;;;9.60;5.50;;;;;;;21.14;44.69;99888.47;5066760;28;20085;-27
2022/09/26 08:40:58;;;;;;;7.45;5.10;;;;;;;21.36;44.52;99882.44;5049531;28;20033;-27
2022/09/26 08:43:38;;;;;;;7.43;5.07;;;;;;;21.52;43.47;99888.47;5071278;28;20492;-28
2022/09/26 08:49:13;;;;;;;;;;;;;;;22.11;45.59;99858.94;5070550;28;20068;-28
2022/09/26 08:51:44;;;;;;;9.07;5.07;;;;;;;22.21;42.02;99849.78;5071206;28;20662;-27
2022/09/26 08:54:17;;;;;;;9.25;4.90;;;;;;;22.61;41.93;99863.69;5052769;28;20032;-27
2022/09/26 08:56:47;;;;;;;8.23;5.18;;;;;;;22.64;42.87;99858.44;5070966;28;20040;-29
2022/09/26 08:59:24;;;;;;;6.30;4.60;;;;;;;22.73;40.85;99868.59;5070765;28;20059;-27
2022/09/26 09:01:53;;;;;;;9.35;5.45;;;;;;;22.54;40.66;99858.66;5070013;28;20403;-28
2022/09/26 09:04:25;;;;;;;9.52;6.20;;;;;;;22.65;41.64;99875.56;5070972;28;20484;-28
2022/09/26 09:06:57;;;;;;;8.25;5.60;;;;;;;22.32;40.77;99872.97;5070308;28;20043;-32
2022/09/26 09:09:23;;;;;;;8.20;5.72;;;;;;;22.15;43.09;99861.84;5070832;28;20032;-28
2022/09/26 09:12:22;;;;;;;7.95;5.00;;;;;;;22.51;42.09;99847.59;5070287;28;20786;-28
2022/09/26 09:15:19;;;;;;;7.90;5.20;;;;;;;22.90;41.66;99843.47;5070819;28;20526;-31
2022/09/26 09:17:58;;;;;;;5.72;4.57;;;;;;;22.97;40.78;99849.31;5070745;28;20064;-27
2022/09/26 09:20:45;;;;;;;12.38;4.57;;;;;;;23.01;40.93;99850.31;5070275;28;20028;-28
2022/09/26 09:23:26;;;;;;;;;;;;;;;22.82;42.30;99845.84;5071461;28;20158;-27
2022/09/26 09:26:10;;;;;;;9.93;4.93;;;;;;;22.45;41.18;99850.44;5070222;28;19923;-29
2022/09/26 09:28:42;;;;;;;7.25;5.05;;;;;;;22.39;41.55;99850.81;5070109;28;20032;-30
2022/09/26 09:31:13;;;;;;;5.95;4.50;;;;;;;22.36;40.41;99843.28;5070315;28;20032;-27
2022/09/26 09:33:44;;;;;;;6.97;4.68;;;;;;;22.21;41.56;99838.91;5070379;28;20037;-28
2022/09/26 09:36:15;;;;;;;6.43;4.50;;;;;;;22.45;41.20;99825.16;5070191;28;20040;-27
2022/09/26 09:38:44;;;;;;;9.35;4.95;;;;;;;23.08;40.35;99828.16;5070253;28;20085;-28
2022/09/26 09:41:12;;;;;;;6.78;4.32;;;;;;;23.46;39.92;99842.19;5051747;28;20036;-27
2022/09/26 09:43:40;;;;;;;8.50;5.00;;;;;;;23.52;39.18;99821.91;5070285;28;20033;-27
2022/09/26 09:46:40;;;;;;;7.95;4.97;;;;;;;23.40;38.40;99813.50;5069749;28;20040;-27
2022/09/26 09:49:08;;;;;;;7.78;4.93;;;;;;;23.83;37.47;99821.13;5065703;28;20051;-28
2022/09/26 09:51:40;;;;;;;9.75;4.40;;;;;;;23.86;37.75;99825.94;5050580;28;20029;-27
2022/09/26 09:54:20;;;;;;;6.32;4.30;;;;;;;23.94;38.13;99829.81;5069387;28;20692;-26
2022/09/26 09:57:01;;;;;;;6.85;4.50;;;;;;;24.15;38.27;99827.31;5069764;28;20050;-28
2022/09/26 10:00:07;;;;;;;6.65;4.30;;;;;;;24.45;38.03;99817.47;5069597;28;20389;-27
2022/09/26 10:02:51;;;;;;;8.25;4.93;;;;;;;24.98;36.21;99804.72;5069590;28;20051;-28
2022/09/26 10:05:41;;;;;;;7.20;4.50;;;;;;;25.00;36.57;99802.47;5069403;28;20041;-28
2022/09/26 10:08:32;;;;;;;6.70;4.72;;;;;;;25.09;36.88;99794.25;5069090;28;20025;-28
2022/09/26 10:11:21;;;;;;;8.13;5.10;;;;;;;24.90;38.20;99795.41;5061618;28;20072;-28
2022/09/26 10:13:51;;;;;;;7.05;4.22;;;;;;;25.02;37.19;99778.38;5069184;28;20056;-28
2022/09/26 10:16:16;;;;;;;10.27;5.53;;;;;;;25.27;37.29;99784.94;5069236;28;20131;-31
2022/09/26 10:19:07;;;;;;;9.63;5.38;;;;;;;25.63;35.10;99781.00;5069375;28;20900;-32
2022/09/26 10:21:39;;;;;;;6.57;5.25;;;;;;;25.38;34.48;99761.66;5069407;28;20052;-31
2022/09/26 10:24:06;;;;;;;16.85;13.35;;;;;;;25.64;35.00;99782.59;5069010;28;20032;-28
2022/09/26 10:26:33;;;;;;;6.93;5.15;;;;;;;25.35;35.57;99772.41;5068270;28;20059;-30
2022/09/26 10:29:33;;;;;;;7.25;4.65;;;;;;;25.78;36.20;99766.00;5068661;28;20182;-29
2022/09/26 10:31:59;;;;;;;7.00;4.97;;;;;;;25.49;33.60;99756.66;5068700;28;20067;-34
2022/09/26 10:35:02;;;;;;;13.20;10.70;;;;;;;26.00;32.67;99764.97;5050631;28;20028;-29
2022/09/26 10:37:29;;;;;;;8.07;5.10;;;;;;;26.12;32.56;99764.28;5068496;28;20036;-27
2022/09/26 10:42:43;;;;;;;7.57;5.10;;;;;;;26.64;33.32;99742.03;5069127;28;20051;-29
2022/09/26 10:45:20;;;;;;;7.80;3.88;;;;;;;26.92;30.24;99738.75;5051040;28;20041;-28
2022/09/26 10:47:50;;;;;;;7.45;4.18;;;;;;;27.38;30.52;99756.00;5068601;28;20043;-27
2022/09/26 10:50:26;;;;;;;16.00;4.25;;;;;;;26.74;31.95;99743.59;5050658;28;20028;-27
2022/09/26 10:53:07;;;;;;;5.82;4.30;;;;;;;26.88;31.38;99751.50;5068185;28;20036;-27
2022/09/26 10:55:39;;;;;;;8.13;4.43;;;;;;;26.34;32.28;99716.72;5048715;28;20033;-28
2022/09/26 10:58:08;;;;;;;6.68;4.07;;;;;;;26.74;31.72;99714.28;5047987;28;20159;-27
2022/09/26 11:00:35;;;;;;;6.38;3.97;;;;;;;27.10;31.65;99723.75;5057740;28;20032;-27
2022/09/26 11:03:04;;;;;;;4.72;3.50;;;;;;;27.28;29.99;99698.94;5067722;28;20025;-29
2022/09/26 11:08:19;;;;;;;5.22;3.30;;;;;;;27.12;29.88;99696.84;5053449;28;20475;-28
2022/09/26 11:10:46;;;;;;;5.68;3.10;;;;;;;27.21;29.31;99711.22;5049702;28;20462;-29
2022/09/26 11:13:17;;;;;;;4.90;3.20;;;;;;;27.36;29.12;99700.78;5067837;28;20556;-28
2022/09/26 11:16:00;;;;;;;5.30;3.00;;;;;;;27.73;28.24;99695.34;5068104;28;20586;-28
2022/09/26 11:18:43;;;;;;;6.35;3.05;;;;;;;28.27;28.28;99695.03;5067543;28;20017;-27
2022/09/26 11:21:28;;;;;;;4.97;3.13;;;;;;;28.65;27.44;99671.88;5067227;28;20036;-27
2022/09/26 11:24:13;;;;;;;4.93;3.10;;;;;;;28.65;27.96;99683.63;5067667;28;20052;-29
2022/09/26 11:27:05;;;;;;;4.78;3.03;;;;;;;28.16;28.29;99680.25;5068042;28;20036;-27
2022/09/26 11:29:41;;;;;;;4.70;3.10;;;;;;;28.07;28.19;99674.06;5050024;28;20687;-28
2022/09/26 11:32:16;;;;;;;6.55;3.20;;;;;;;28.21;28.20;99664.31;5067678;28;20071;-28
2022/09/26 11:34:42;;;;;;;5.03;3.05;;;;;;;28.05;27.80;99650.56;5049799;28;20070;-28
2022/09/26 11:37:16;;;;;;;5.45;3.20;;;;;;;28.05;28.25;99656.06;5067749;28;20037;-28
2022/09/26 11:40:06;;;;;;;4.57;2.92;;;;;;;28.52;27.96;99657.38;5067759;28;20407;-29
2022/09/26 11:42:58;;;;;;;6.97;2.92;;;;;;;28.58;28.89;99650.50;5049744;28;20029;-27
2022/09/26 11:45:35;;;;;;;4.32;2.97;;;;;;;28.02;29.14;99647.72;5067528;28;20029;-29
2022/09/26 11:48:39;;;;;;;6.57;3.00;;;;;;;27.64;30.08;99627.78;5049422;28;20067;-28
2022/09/26 11:51:42;;;;;;;4.35;2.92;;;;;;;27.71;29.25;99629.16;5063254;28;20040;-27
2022/09/26 11:54:32;;;;;;;5.38;2.88;;;;;;;27.30;29.79;99620.84;5048829;28;20531;-28
2022/09/26 11:57:07;;;;;;;4.88;2.88;;;;;;;27.71;29.99;99629.16;5067348;28;20781;-27
2022/09/26 11:59:36;;;;;;;5.28;2.92;;;;;;;28.14;29.34;99624.97;5067259;28;20036;-27
2022/09/26 12:02:30;;;;;;;7.18;2.70;;;;;;;28.46;29.30;99625.84;5066998;28;20028;-27